createdAt,value
2023-10-28T00:00:30.865Z,977.25
2023-10-28T00:01:30.858Z,977.33
2023-10-28T00:02:30.849Z,977.27
2023-10-28T00:03:30.870Z,977.23
2023-10-28T00:04:30.821Z,977.22
2023-10-28T00:05:30.816Z,977.23
2023-10-28T00:06:30.798Z,977.29
2023-10-28T00:07:30.804Z,977.23
2023-10-28T00:08:30.787Z,977.34
2023-10-28T00:09:30.763Z,977.32
2023-10-28T00:10:30.753Z,977.29
2023-10-28T00:11:30.756Z,977.34
2023-10-28T00:12:30.749Z,977.37
2023-10-28T00:13:30.727Z,977.37
2023-10-28T00:14:30.716Z,977.34
2023-10-28T00:15:30.705Z,977.40
2023-10-28T00:16:30.700Z,977.36
2023-10-28T00:17:30.730Z,977.40
2023-10-28T00:18:30.675Z,977.31
2023-10-28T00:19:30.664Z,977.43
2023-10-28T00:20:30.762Z,977.44
2023-10-28T00:21:30.667Z,977.47
2023-10-28T00:22:30.645Z,977.41
2023-10-28T00:23:30.624Z,977.41
2023-10-28T00:24:30.630Z,977.41
2023-10-28T00:25:30.597Z,977.37
2023-10-28T00:26:30.619Z,977.38
2023-10-28T00:27:30.573Z,977.38
2023-10-28T00:28:30.560Z,977.40
2023-10-28T00:29:30.568Z,977.39
2023-10-28T00:30:30.558Z,977.41
2023-10-28T00:31:30.586Z,977.44
2023-10-28T00:32:30.516Z,977.40
2023-10-28T00:33:30.512Z,977.42
2023-10-28T00:34:30.496Z,977.40
2023-10-28T00:35:30.518Z,977.42
2023-10-28T00:36:30.479Z,977.44
2023-10-28T00:37:30.477Z,977.42
2023-10-28T00:38:30.468Z,977.44
2023-10-28T00:39:30.448Z,977.43
2023-10-28T00:40:30.464Z,977.47
2023-10-28T00:41:30.430Z,977.41
2023-10-28T00:42:30.410Z,977.45
2023-10-28T00:43:30.406Z,977.49
2023-10-28T00:44:30.417Z,977.46
2023-10-28T00:45:30.426Z,977.44
2023-10-28T00:46:30.367Z,977.40
2023-10-28T00:47:30.378Z,977.41
2023-10-28T00:48:30.356Z,977.43
2023-10-28T00:49:30.357Z,977.39
2023-10-28T00:50:30.325Z,977.43
2023-10-28T00:51:30.321Z,977.37
2023-10-28T00:52:30.305Z,977.41
2023-10-28T00:53:30.308Z,977.47
2023-10-28T00:54:30.301Z,977.51
2023-10-28T00:55:30.301Z,977.41
2023-10-28T00:56:30.264Z,977.47
2023-10-28T00:57:30.257Z,977.47
2023-10-28T00:58:30.244Z,977.47
2023-10-28T00:59:30.261Z,977.38
2023-10-28T01:00:30.222Z,977.46
2023-10-28T01:01:30.249Z,977.41
2023-10-28T01:02:30.268Z,977.47
2023-10-28T01:03:30.396Z,977.46
2023-10-28T01:04:30.197Z,977.45
2023-10-28T01:05:30.175Z,977.44
2023-10-28T01:06:30.156Z,977.48
2023-10-28T01:07:30.157Z,977.47
2023-10-28T01:08:30.179Z,977.48
2023-10-28T01:09:30.137Z,977.50
2023-10-28T01:10:30.136Z,977.43
2023-10-28T01:11:30.110Z,977.49
2023-10-28T01:12:30.092Z,977.44
2023-10-28T01:13:30.109Z,977.50
2023-10-28T01:14:30.077Z,977.41
2023-10-28T01:15:30.084Z,977.45
2023-10-28T01:16:30.061Z,977.51
2023-10-28T01:17:30.123Z,977.45
2023-10-28T01:18:30.220Z,977.50
2023-10-28T01:19:30.021Z,977.46
2023-10-28T01:20:30.010Z,977.48
2023-10-28T01:21:30.003Z,977.46
2023-10-28T01:22:30.003Z,977.50
2023-10-28T01:23:29.982Z,977.42
2023-10-28T01:24:29.968Z,977.42
2023-10-28T01:25:29.973Z,977.44
2023-10-28T01:26:29.962Z,977.40
2023-10-28T01:27:29.958Z,977.40
2023-10-28T01:28:29.925Z,977.41
2023-10-28T01:29:29.938Z,977.38
2023-10-28T01:30:29.905Z,977.28
2023-10-28T01:31:29.931Z,977.32
2023-10-28T01:32:29.912Z,977.23
2023-10-28T01:33:29.885Z,977.35
2023-10-28T01:34:29.895Z,977.29
2023-10-28T01:35:29.891Z,977.24
2023-10-28T01:36:29.854Z,977.28
2023-10-28T01:37:29.834Z,977.14
2023-10-28T01:38:29.828Z,977.24
2023-10-28T01:39:29.811Z,977.32
2023-10-28T01:40:29.820Z,977.27
2023-10-28T01:41:29.806Z,977.27
2023-10-28T01:42:29.776Z,977.33
2023-10-28T01:43:29.771Z,977.27
2023-10-28T01:44:29.753Z,977.27
2023-10-28T01:45:29.817Z,977.27
2023-10-28T01:46:29.734Z,977.25
2023-10-28T01:47:29.762Z,977.31
2023-10-28T01:48:29.712Z,977.30
2023-10-28T01:49:29.705Z,977.26
2023-10-28T01:50:29.712Z,977.30
2023-10-28T01:51:29.697Z,977.29
2023-10-28T01:52:29.671Z,977.28
2023-10-28T01:53:29.668Z,977.30
2023-10-28T01:54:29.668Z,977.32
2023-10-28T01:55:29.673Z,977.35
2023-10-28T01:56:29.630Z,977.27
2023-10-28T01:57:29.646Z,977.28
2023-10-28T01:58:29.650Z,977.20
2023-10-28T01:59:29.616Z,977.27
2023-10-28T02:00:29.589Z,977.19
2023-10-28T02:01:29.591Z,977.23
2023-10-28T02:02:29.638Z,977.21
2023-10-28T02:03:29.604Z,977.24
2023-10-28T02:04:29.558Z,977.22
2023-10-28T02:05:29.542Z,977.23
2023-10-28T02:06:29.522Z,977.27
2023-10-28T02:07:29.523Z,977.23
2023-10-28T02:08:29.524Z,977.23
2023-10-28T02:09:29.806Z,977.24
2023-10-28T02:10:29.480Z,977.20
2023-10-28T02:11:29.551Z,977.30
2023-10-28T02:12:29.474Z,977.28
2023-10-28T02:13:29.471Z,977.20
2023-10-28T02:14:29.439Z,977.25
2023-10-28T02:15:29.500Z,977.25
2023-10-28T02:16:29.417Z,977.21
2023-10-28T02:17:29.440Z,977.18
2023-10-28T02:18:29.420Z,977.23
2023-10-28T02:19:29.392Z,977.28
2023-10-28T02:20:29.383Z,977.26
2023-10-28T02:21:29.371Z,977.27
2023-10-28T02:22:29.369Z,977.23
2023-10-28T02:23:29.374Z,977.24
2023-10-28T02:24:29.344Z,977.25
2023-10-28T02:25:29.325Z,977.24
2023-10-28T02:26:29.312Z,977.27
2023-10-28T02:27:29.317Z,977.28
2023-10-28T02:28:29.298Z,977.27
2023-10-28T02:29:29.287Z,977.26
2023-10-28T02:30:29.266Z,977.22
2023-10-28T02:31:29.297Z,977.25
2023-10-28T02:32:29.469Z,977.21
2023-10-28T02:33:29.260Z,977.20
2023-10-28T02:34:29.237Z,977.21
2023-10-28T02:35:29.226Z,977.20
2023-10-28T02:36:29.224Z,977.23
2023-10-28T02:37:29.218Z,977.22
2023-10-28T02:38:29.181Z,977.24
2023-10-28T02:39:29.181Z,977.20
2023-10-28T02:40:29.162Z,977.21
2023-10-28T02:41:29.171Z,977.24
2023-10-28T02:42:29.146Z,977.22
2023-10-28T02:43:29.136Z,977.25
2023-10-28T02:44:29.121Z,977.20
2023-10-28T02:45:29.132Z,977.23
2023-10-28T02:46:29.120Z,977.20
2023-10-28T02:47:31.085Z,977.27
2023-10-28T02:48:29.086Z,977.24
2023-10-28T02:49:29.137Z,977.33
2023-10-28T02:50:29.073Z,977.28
2023-10-28T02:51:29.067Z,977.26
2023-10-28T02:52:29.065Z,977.29
2023-10-28T02:53:29.031Z,977.27
2023-10-28T02:54:29.017Z,977.29
2023-10-28T02:55:29.028Z,977.27
2023-10-28T02:56:29.006Z,977.29
2023-10-28T02:57:28.993Z,977.28
2023-10-28T02:58:28.977Z,977.26
2023-10-28T02:59:28.970Z,977.28
2023-10-28T03:00:28.967Z,977.31
2023-10-28T03:01:28.961Z,977.32
2023-10-28T03:02:29.000Z,977.33
2023-10-28T03:03:29.060Z,977.30
2023-10-28T03:04:28.930Z,977.31
2023-10-28T03:05:28.922Z,977.30
2023-10-28T03:06:28.894Z,977.34
2023-10-28T03:07:28.916Z,977.33
2023-10-28T03:08:28.869Z,977.30
2023-10-28T03:09:28.898Z,977.34
2023-10-28T03:10:28.851Z,977.38
2023-10-28T03:11:28.840Z,977.33
2023-10-28T03:12:28.830Z,977.37
2023-10-28T03:13:28.814Z,977.35
2023-10-28T03:14:28.831Z,977.33
2023-10-28T03:15:28.874Z,977.34
2023-10-28T03:16:28.843Z,977.33
2023-10-28T03:17:28.793Z,977.36
2023-10-28T03:18:28.791Z,977.33
2023-10-28T03:19:28.766Z,977.32
2023-10-28T03:20:28.763Z,977.37
2023-10-28T03:21:28.727Z,977.35
2023-10-28T03:22:28.728Z,977.33
2023-10-28T03:23:28.729Z,977.29
2023-10-28T03:24:28.705Z,977.32
2023-10-28T03:25:28.686Z,977.26
2023-10-28T03:26:28.685Z,977.26
2023-10-28T03:27:28.665Z,977.30
2023-10-28T03:28:28.678Z,977.26
2023-10-28T03:29:28.645Z,977.26
2023-10-28T03:30:28.640Z,977.29
2023-10-28T03:31:28.622Z,977.30
2023-10-28T03:32:28.658Z,977.28
2023-10-28T03:33:28.640Z,977.29
2023-10-28T03:34:28.605Z,977.28
2023-10-28T03:35:28.595Z,977.24
2023-10-28T03:36:28.591Z,977.26
2023-10-28T03:37:28.581Z,977.30
2023-10-28T03:38:28.557Z,977.27
2023-10-28T03:39:28.563Z,977.30
2023-10-28T03:40:28.556Z,977.33
2023-10-28T03:41:28.521Z,977.28
2023-10-28T03:42:28.569Z,977.29
2023-10-28T03:43:28.502Z,977.26
2023-10-28T03:44:28.499Z,977.28
2023-10-28T03:45:28.492Z,977.37
2023-10-28T03:46:28.488Z,977.40
2023-10-28T03:47:28.485Z,977.39
2023-10-28T03:48:28.451Z,977.34
2023-10-28T03:49:28.439Z,977.35
2023-10-28T03:50:28.447Z,977.38
2023-10-28T03:51:28.429Z,977.39
2023-10-28T03:52:28.415Z,977.35
2023-10-28T03:53:28.397Z,977.39
2023-10-28T03:54:28.389Z,977.39
2023-10-28T03:55:28.378Z,977.38
2023-10-28T03:56:28.392Z,977.43
2023-10-28T03:57:28.351Z,977.49
2023-10-28T03:58:28.348Z,977.45
2023-10-28T03:59:28.328Z,977.45
2023-10-28T04:00:28.348Z,977.46
2023-10-28T04:01:28.364Z,977.40
2023-10-28T04:02:28.317Z,977.44
2023-10-28T04:03:28.300Z,977.48
2023-10-28T04:04:28.290Z,977.41
2023-10-28T04:05:28.289Z,977.45
2023-10-28T04:06:28.255Z,977.48
2023-10-28T04:07:28.242Z,977.46
2023-10-28T04:08:28.256Z,977.49
2023-10-28T04:09:28.225Z,977.49
2023-10-28T04:10:28.237Z,977.53
2023-10-28T04:11:28.199Z,977.49
2023-10-28T04:12:28.199Z,977.48
2023-10-28T04:13:28.275Z,977.50
2023-10-28T04:14:28.196Z,977.50
2023-10-28T04:15:28.173Z,977.51
2023-10-28T04:16:28.164Z,977.48
2023-10-28T04:17:28.163Z,977.46
2023-10-28T04:18:28.162Z,977.45
2023-10-28T04:19:28.145Z,977.44
2023-10-28T04:20:28.108Z,977.50
2023-10-28T04:21:28.108Z,977.50
2023-10-28T04:22:28.101Z,977.50
2023-10-28T04:23:28.086Z,977.44
2023-10-28T04:24:28.105Z,977.46
2023-10-28T04:25:28.051Z,977.46
2023-10-28T04:26:28.067Z,977.48
2023-10-28T04:27:28.032Z,977.46
2023-10-28T04:28:28.025Z,977.47
2023-10-28T04:29:28.032Z,977.44
2023-10-28T04:30:28.014Z,977.49
2023-10-28T04:31:27.997Z,977.46
2023-10-28T04:32:28.045Z,977.38
2023-10-28T04:33:28.000Z,977.44
2023-10-28T04:34:34.865Z,977.43
2023-10-28T04:35:29.437Z,977.45
2023-10-28T04:36:27.956Z,977.42
2023-10-28T04:37:27.922Z,977.42
2023-10-28T04:38:27.948Z,977.43
2023-10-28T04:39:27.905Z,977.42
2023-10-28T04:40:27.919Z,977.44
2023-10-28T04:41:27.884Z,977.40
2023-10-28T04:42:27.881Z,977.44
2023-10-28T04:43:27.884Z,977.42
2023-10-28T04:44:27.861Z,977.43
2023-10-28T04:45:27.839Z,977.44
2023-10-28T04:46:27.835Z,977.47
2023-10-28T04:47:27.859Z,977.46
2023-10-28T04:48:27.833Z,977.35
2023-10-28T04:49:27.798Z,977.42
2023-10-28T04:50:27.790Z,977.40
2023-10-28T04:51:27.784Z,977.44
2023-10-28T04:52:27.793Z,977.42
2023-10-28T04:53:27.759Z,977.45
2023-10-28T04:54:27.760Z,977.41
2023-10-28T04:55:27.733Z,977.48
2023-10-28T04:56:27.734Z,977.38
2023-10-28T04:57:27.759Z,977.44
2023-10-28T04:58:27.708Z,977.44
2023-10-28T04:59:27.697Z,977.43
2023-10-28T05:00:27.694Z,977.43
2023-10-28T05:01:27.714Z,977.42
2023-10-28T05:02:27.679Z,977.46
2023-10-28T05:03:27.677Z,977.44
2023-10-28T05:04:27.643Z,977.45
2023-10-28T05:05:27.638Z,977.46
2023-10-28T05:06:27.637Z,977.45
2023-10-28T05:07:27.606Z,977.46
2023-10-28T05:08:27.598Z,977.43
2023-10-28T05:09:27.584Z,977.43
2023-10-28T05:10:29.558Z,977.42
2023-10-28T05:11:27.586Z,977.39
2023-10-28T05:12:27.611Z,977.41
2023-10-28T05:13:27.543Z,977.42
2023-10-28T05:14:27.540Z,977.44
2023-10-28T05:15:27.538Z,977.44
2023-10-28T05:16:27.552Z,977.49
2023-10-28T05:17:27.526Z,977.46
2023-10-28T05:18:27.489Z,977.47
2023-10-28T05:19:27.480Z,977.45
2023-10-28T05:20:27.553Z,977.53
2023-10-28T05:21:27.467Z,977.51
2023-10-28T05:22:27.463Z,977.50
2023-10-28T05:23:27.439Z,977.52
2023-10-28T05:24:27.431Z,977.52
2023-10-28T05:25:27.437Z,977.48
2023-10-28T05:26:27.411Z,977.53
2023-10-28T05:27:27.399Z,977.52
2023-10-28T05:28:27.389Z,977.54
2023-10-28T05:29:27.393Z,977.59
2023-10-28T05:30:27.397Z,977.56
2023-10-28T05:31:27.376Z,977.57
2023-10-28T05:32:27.479Z,977.57
2023-10-28T05:33:27.352Z,977.56
2023-10-28T05:34:27.345Z,977.55
2023-10-28T05:35:27.314Z,977.55
2023-10-28T05:36:27.300Z,977.55
2023-10-28T05:37:27.287Z,977.50
2023-10-28T05:38:27.285Z,977.55
2023-10-28T05:39:27.299Z,977.55
2023-10-28T05:40:27.267Z,977.59
2023-10-28T05:41:27.246Z,977.63
2023-10-28T05:42:27.238Z,977.64
2023-10-28T05:43:27.239Z,977.66
2023-10-28T05:44:27.240Z,977.65
2023-10-28T05:45:27.206Z,977.65
2023-10-28T05:46:27.234Z,977.65
2023-10-28T05:47:27.180Z,977.74
2023-10-28T05:48:27.191Z,977.69
2023-10-28T05:49:27.160Z,977.69
2023-10-28T05:50:27.169Z,977.71
2023-10-28T05:51:27.142Z,977.75
2023-10-28T05:52:27.139Z,977.74
2023-10-28T05:53:27.152Z,977.79
2023-10-28T05:54:27.123Z,977.74
2023-10-28T05:55:27.106Z,977.78
2023-10-28T05:56:27.093Z,977.80
2023-10-28T05:57:27.106Z,977.86
2023-10-28T05:58:27.092Z,977.82
2023-10-28T05:59:27.056Z,977.84
2023-10-28T06:00:27.065Z,977.87
2023-10-28T06:01:27.072Z,977.86
2023-10-28T06:02:27.107Z,977.90
2023-10-28T06:03:27.012Z,977.87
2023-10-28T06:04:27.009Z,977.93
2023-10-28T06:05:27.054Z,977.97
2023-10-28T06:06:26.996Z,977.99
2023-10-28T06:07:26.992Z,977.96
2023-10-28T06:08:26.981Z,978.03
2023-10-28T06:09:26.958Z,977.99
2023-10-28T06:10:26.947Z,978.01
2023-10-28T06:11:26.947Z,978.08
2023-10-28T06:12:26.940Z,978.05
2023-10-28T06:13:26.909Z,978.08
2023-10-28T06:14:26.901Z,978.07
2023-10-28T06:15:26.895Z,978.02
2023-10-28T06:16:26.976Z,978.03
2023-10-28T06:17:26.924Z,978.02
2023-10-28T06:18:26.827Z,978.05
2023-10-28T06:19:26.796Z,978.07
2023-10-28T06:20:26.867Z,978.05
2023-10-28T06:21:26.840Z,978.12
2023-10-28T06:22:26.844Z,978.15
2023-10-28T06:23:26.810Z,978.13
2023-10-28T06:24:26.793Z,978.17
2023-10-28T06:25:26.803Z,978.21
2023-10-28T06:26:26.799Z,978.19
2023-10-28T06:27:26.761Z,978.24
2023-10-28T06:28:26.750Z,978.20
2023-10-28T06:29:26.793Z,978.21
2023-10-28T06:30:26.764Z,978.22
2023-10-28T06:31:26.712Z,978.25
2023-10-28T06:32:26.780Z,978.15
2023-10-28T06:33:26.695Z,978.20
2023-10-28T06:34:26.705Z,978.20
2023-10-28T06:35:26.665Z,978.15
2023-10-28T06:36:26.610Z,978.21
2023-10-28T06:37:26.650Z,978.28
2023-10-28T06:38:26.742Z,978.27
2023-10-28T06:39:26.648Z,978.36
2023-10-28T06:40:26.626Z,978.38
2023-10-28T06:41:26.613Z,978.41
2023-10-28T06:42:26.561Z,978.38
2023-10-28T06:43:26.548Z,978.37
2023-10-28T06:44:26.559Z,978.49
2023-10-28T06:45:26.573Z,978.47
2023-10-28T06:46:26.591Z,978.49
2023-10-28T06:47:26.546Z,978.51
2023-10-28T06:48:26.514Z,978.49
2023-10-28T06:49:26.492Z,978.49
2023-10-28T06:50:26.504Z,978.49
2023-10-28T06:51:26.461Z,978.52
2023-10-28T06:52:26.451Z,978.51
2023-10-28T06:53:26.492Z,978.50
2023-10-28T06:54:26.417Z,978.47
2023-10-28T06:55:26.411Z,978.55
2023-10-28T06:56:26.426Z,978.50
2023-10-28T06:57:26.385Z,978.52
2023-10-28T06:58:26.397Z,978.54
2023-10-28T06:59:26.365Z,978.60
2023-10-28T07:00:26.361Z,978.60
2023-10-28T07:01:26.377Z,978.60
2023-10-28T07:02:26.369Z,978.58
2023-10-28T07:03:26.399Z,978.66
2023-10-28T07:04:26.328Z,978.77
2023-10-28T07:05:26.298Z,978.77
2023-10-28T07:06:26.294Z,978.73
2023-10-28T07:07:26.301Z,978.77
2023-10-28T07:08:26.273Z,978.74
2023-10-28T07:09:26.292Z,978.71
2023-10-28T07:10:26.253Z,978.68
2023-10-28T07:11:26.244Z,978.79
2023-10-28T07:12:26.252Z,978.78
2023-10-28T07:13:26.220Z,978.80
2023-10-28T07:14:26.241Z,978.81
2023-10-28T07:15:26.195Z,978.94
2023-10-28T07:16:26.223Z,978.87
2023-10-28T07:17:26.293Z,978.94
2023-10-28T07:18:26.167Z,978.92
2023-10-28T07:19:26.157Z,979.01
2023-10-28T07:20:26.174Z,979.03
2023-10-28T07:21:26.149Z,979.05
2023-10-28T07:22:26.132Z,979.10
2023-10-28T07:23:26.138Z,978.98
2023-10-28T07:24:26.108Z,979.01
2023-10-28T07:25:26.095Z,978.99
2023-10-28T07:26:26.119Z,979.04
2023-10-28T07:27:27.553Z,979.02
2023-10-28T07:28:26.058Z,979.05
2023-10-28T07:29:26.051Z,979.08
2023-10-28T07:30:26.063Z,979.09
2023-10-28T07:31:26.050Z,979.10
2023-10-28T07:32:26.042Z,979.14
2023-10-28T07:33:26.014Z,979.10
2023-10-28T07:34:25.994Z,979.16
2023-10-28T07:35:26.033Z,979.17
2023-10-28T07:36:25.973Z,979.15
2023-10-28T07:37:25.964Z,979.23
2023-10-28T07:38:26.077Z,979.21
2023-10-28T07:39:25.943Z,979.18
2023-10-28T07:40:25.958Z,979.23
2023-10-28T07:41:25.968Z,979.20
2023-10-28T07:42:25.917Z,979.27
2023-10-28T07:43:25.908Z,979.33
2023-10-28T07:44:25.962Z,979.38
2023-10-28T07:45:25.913Z,979.35
2023-10-28T07:46:25.903Z,979.40
2023-10-28T07:47:25.882Z,979.39
2023-10-28T07:48:25.843Z,979.43
2023-10-28T07:49:25.881Z,979.47
2023-10-28T07:50:25.876Z,979.47
2023-10-28T07:51:25.875Z,979.48
2023-10-28T07:52:25.808Z,979.45
2023-10-28T07:53:25.879Z,979.44
2023-10-28T07:54:25.798Z,979.46
2023-10-28T07:55:25.774Z,979.46
2023-10-28T07:56:25.782Z,979.41
2023-10-28T07:57:25.752Z,979.48
2023-10-28T07:58:25.757Z,979.45
2023-10-28T07:59:25.764Z,979.50
2023-10-28T08:00:25.722Z,979.41
2023-10-28T08:01:25.711Z,979.45
2023-10-28T08:02:25.800Z,979.49
2023-10-28T08:03:25.833Z,979.45
2023-10-28T08:04:25.675Z,979.50
2023-10-28T08:05:25.724Z,979.52
2023-10-28T08:06:34.991Z,979.50
2023-10-28T08:07:26.656Z,979.55
2023-10-28T08:08:25.703Z,979.59
2023-10-28T08:09:25.626Z,979.58
2023-10-28T08:10:25.638Z,979.63
2023-10-28T08:11:25.617Z,979.65
2023-10-28T08:12:25.621Z,979.65
2023-10-28T08:13:25.604Z,979.66
2023-10-28T08:14:25.638Z,979.67
2023-10-28T08:15:25.606Z,979.66
2023-10-28T08:16:25.589Z,979.69
2023-10-28T08:17:27.226Z,979.62
2023-10-28T08:18:25.526Z,979.66
2023-10-28T08:19:25.519Z,979.69
2023-10-28T08:20:25.549Z,979.65
2023-10-28T08:21:25.500Z,979.68
2023-10-28T08:22:25.519Z,979.68
2023-10-28T08:23:25.499Z,979.68
2023-10-28T08:24:25.461Z,979.68
2023-10-28T08:25:25.475Z,979.71
2023-10-28T08:26:25.469Z,979.71
2023-10-28T08:27:25.450Z,979.70
2023-10-28T08:28:25.418Z,979.69
2023-10-28T08:29:25.463Z,979.67
2023-10-28T08:30:26.761Z,979.66
2023-10-28T08:31:25.437Z,979.68
2023-10-28T08:32:25.426Z,979.70
2023-10-28T08:33:25.375Z,979.68
2023-10-28T08:34:25.356Z,979.71
2023-10-28T08:35:25.358Z,979.80
2023-10-28T08:36:25.346Z,979.75
2023-10-28T08:37:25.329Z,979.76
2023-10-28T08:38:25.336Z,979.74
2023-10-28T08:39:25.308Z,979.76
2023-10-28T08:40:25.309Z,979.77
2023-10-28T08:41:25.333Z,979.77
2023-10-28T08:42:25.271Z,979.81
2023-10-28T08:43:25.266Z,979.81
2023-10-28T08:44:25.279Z,979.80
2023-10-28T08:45:25.275Z,979.83
2023-10-28T08:46:25.250Z,979.87
2023-10-28T08:47:25.258Z,979.83
2023-10-28T08:48:25.317Z,979.87
2023-10-28T08:49:25.200Z,979.87
2023-10-28T08:50:25.220Z,979.87
2023-10-28T08:51:25.179Z,979.86
2023-10-28T08:52:25.196Z,979.84
2023-10-28T08:53:25.178Z,979.84
2023-10-28T08:54:25.165Z,979.89
2023-10-28T08:55:25.164Z,979.86
2023-10-28T08:56:25.138Z,979.87
2023-10-28T08:57:25.131Z,979.88
2023-10-28T08:58:25.105Z,979.89
2023-10-28T08:59:25.154Z,979.95
2023-10-28T09:00:25.083Z,979.98
2023-10-28T09:01:25.139Z,979.98
2023-10-28T09:02:25.137Z,979.98
2023-10-28T09:03:25.110Z,979.96
2023-10-28T09:04:25.070Z,980.02
2023-10-28T09:05:25.107Z,979.98
2023-10-28T09:06:25.016Z,979.97
2023-10-28T09:07:25.017Z,980.00
2023-10-28T09:08:25.039Z,980.00
2023-10-28T09:09:25.038Z,980.01
2023-10-28T09:10:24.985Z,980.00
2023-10-28T09:11:25.024Z,980.03
2023-10-28T09:12:24.991Z,980.04
2023-10-28T09:13:24.985Z,980.03
2023-10-28T09:14:24.946Z,980.03
2023-10-28T09:15:24.938Z,980.04
2023-10-28T09:16:24.912Z,980.02
2023-10-28T09:17:25.024Z,980.04
2023-10-28T09:18:24.931Z,980.05
2023-10-28T09:19:24.881Z,980.09
2023-10-28T09:20:24.874Z,980.07
2023-10-28T09:21:24.862Z,980.04
2023-10-28T09:22:24.848Z,980.07
2023-10-28T09:23:24.904Z,980.05
2023-10-28T09:24:24.825Z,980.03
2023-10-28T09:25:24.830Z,980.07
2023-10-28T09:26:24.817Z,980.08
2023-10-28T09:27:24.826Z,980.08
2023-10-28T09:28:24.802Z,980.07
2023-10-28T09:29:24.819Z,980.04
2023-10-28T09:30:24.764Z,980.06
2023-10-28T09:31:24.768Z,980.08
2023-10-28T09:32:24.782Z,980.08
2023-10-28T09:33:24.811Z,980.03
2023-10-28T09:34:24.724Z,980.01
2023-10-28T09:35:24.772Z,980.05
2023-10-28T09:36:24.704Z,979.99
2023-10-28T09:37:24.721Z,980.09
2023-10-28T09:38:24.702Z,980.17
2023-10-28T09:39:24.674Z,980.16
2023-10-28T09:40:24.669Z,980.17
2023-10-28T09:41:24.751Z,980.07
2023-10-28T09:42:24.656Z,980.12
2023-10-28T09:43:24.631Z,980.17
2023-10-28T09:44:24.632Z,980.24
2023-10-28T09:45:24.619Z,980.22
2023-10-28T09:46:24.621Z,980.19
2023-10-28T09:47:24.633Z,980.20
2023-10-28T09:48:24.593Z,980.20
2023-10-28T09:49:24.578Z,980.28
2023-10-28T09:50:24.628Z,980.29
2023-10-28T09:51:24.564Z,980.33
2023-10-28T09:52:24.541Z,980.30
2023-10-28T09:53:24.595Z,980.32
2023-10-28T09:54:24.515Z,980.24
2023-10-28T09:55:24.527Z,980.27
2023-10-28T09:56:24.544Z,980.25
2023-10-28T09:57:24.487Z,980.26
2023-10-28T09:58:24.481Z,980.33
2023-10-28T09:59:24.496Z,980.25
2023-10-28T10:00:24.754Z,980.19
2023-10-28T10:01:24.511Z,980.19
2023-10-28T10:02:24.456Z,980.22
2023-10-28T10:03:24.458Z,980.21
2023-10-28T10:04:24.441Z,980.16
2023-10-28T10:05:24.476Z,980.14
2023-10-28T10:06:24.389Z,980.20
2023-10-28T10:07:24.388Z,980.17
2023-10-28T10:08:24.393Z,980.20
2023-10-28T10:09:24.378Z,980.19
2023-10-28T10:10:24.349Z,980.19
2023-10-28T10:11:24.378Z,980.15
2023-10-28T10:12:24.351Z,980.25
2023-10-28T10:13:24.321Z,980.13
2023-10-28T10:14:24.333Z,980.21
2023-10-28T10:15:24.304Z,980.19
2023-10-28T10:16:24.282Z,980.17
2023-10-28T10:17:24.361Z,980.24
2023-10-28T10:18:24.281Z,980.18
2023-10-28T10:19:24.279Z,980.19
2023-10-28T10:20:24.274Z,980.18
2023-10-28T10:21:24.237Z,980.16
2023-10-28T10:22:24.302Z,980.20
2023-10-28T10:23:24.293Z,980.22
2023-10-28T10:24:24.201Z,980.18
2023-10-28T10:25:24.194Z,980.20
2023-10-28T10:26:24.223Z,980.21
2023-10-28T10:27:24.179Z,980.17
2023-10-28T10:28:24.189Z,980.23
2023-10-28T10:29:24.179Z,980.20
2023-10-28T10:30:24.155Z,980.17
2023-10-28T10:31:24.139Z,980.19
2023-10-28T10:32:24.182Z,980.16
2023-10-28T10:33:24.130Z,980.22
2023-10-28T10:34:24.098Z,980.17
2023-10-28T10:35:24.129Z,980.16
2023-10-28T10:36:24.082Z,980.15
2023-10-28T10:37:24.104Z,980.18
2023-10-28T10:38:24.101Z,980.15
2023-10-28T10:39:24.070Z,980.13
2023-10-28T10:40:24.039Z,980.14
2023-10-28T10:41:24.070Z,980.03
2023-10-28T10:42:24.041Z,980.03
2023-10-28T10:43:24.017Z,980.02
2023-10-28T10:44:24.068Z,980.04
2023-10-28T10:45:23.988Z,980.01
2023-10-28T10:46:23.984Z,980.00
2023-10-28T10:47:23.999Z,980.05
2023-10-28T10:48:23.956Z,980.02
2023-10-28T10:49:23.948Z,980.00
2023-10-28T10:50:24.005Z,979.91
2023-10-28T10:51:23.936Z,979.96
2023-10-28T10:52:23.913Z,979.97
2023-10-28T10:53:23.982Z,980.00
2023-10-28T10:54:23.888Z,980.05
2023-10-28T10:55:25.297Z,980.02
2023-10-28T10:56:23.912Z,980.01
2023-10-28T10:57:23.865Z,980.00
2023-10-28T10:58:23.846Z,979.96
2023-10-28T10:59:23.870Z,980.00
2023-10-28T11:00:23.847Z,979.96
2023-10-28T11:01:23.849Z,980.04
2023-10-28T11:02:23.982Z,979.96
2023-10-28T11:03:23.843Z,979.99
2023-10-28T11:04:23.789Z,979.98
2023-10-28T11:05:23.834Z,979.95
2023-10-28T11:06:23.761Z,979.89
2023-10-28T11:07:23.757Z,979.89
2023-10-28T11:08:23.793Z,979.90
2023-10-28T11:09:23.756Z,979.93
2023-10-28T11:10:23.789Z,979.92
2023-10-28T11:11:23.768Z,979.90
2023-10-28T11:12:23.702Z,979.90
2023-10-28T11:13:23.757Z,979.95
2023-10-28T11:14:23.725Z,979.88
2023-10-28T11:15:23.708Z,979.86
2023-10-28T11:16:23.665Z,979.88
2023-10-28T11:17:23.685Z,980.02
2023-10-28T11:18:23.634Z,979.87
2023-10-28T11:19:23.639Z,979.93
2023-10-28T11:20:23.687Z,979.88
2023-10-28T11:21:23.609Z,979.93
2023-10-28T11:22:23.589Z,979.93
2023-10-28T11:23:23.620Z,979.93
2023-10-28T11:24:23.603Z,979.92
2023-10-28T11:25:23.562Z,980.05
2023-10-28T11:26:23.592Z,979.96
2023-10-28T11:27:23.585Z,979.98
2023-10-28T11:28:23.542Z,979.99
2023-10-28T11:29:23.541Z,979.97
2023-10-28T11:30:23.508Z,979.91
2023-10-28T11:31:23.543Z,979.88
2023-10-28T11:32:23.553Z,979.91
2023-10-28T11:33:23.536Z,979.90
2023-10-28T11:34:23.479Z,979.92
2023-10-28T11:35:23.507Z,979.92
2023-10-28T11:36:23.441Z,979.88
2023-10-28T11:37:23.432Z,979.91
2023-10-28T11:38:23.467Z,979.93
2023-10-28T11:39:23.414Z,979.90
2023-10-28T11:40:23.405Z,979.90
2023-10-28T11:41:23.409Z,979.90
2023-10-28T11:42:23.397Z,979.89
2023-10-28T11:43:23.388Z,979.83
2023-10-28T11:44:23.394Z,979.86
2023-10-28T11:45:23.373Z,979.83
2023-10-28T11:46:23.343Z,979.86
2023-10-28T11:47:23.385Z,979.84
2023-10-28T11:48:23.328Z,979.81
2023-10-28T11:49:23.308Z,979.78
2023-10-28T11:50:23.311Z,979.79
2023-10-28T11:51:23.281Z,979.76
2023-10-28T11:52:23.294Z,979.78
2023-10-28T11:53:23.299Z,979.79
2023-10-28T11:54:23.260Z,979.76
2023-10-28T11:55:23.245Z,979.70
2023-10-28T11:56:23.289Z,979.75
2023-10-28T11:57:23.239Z,979.74
2023-10-28T11:58:23.217Z,979.69
2023-10-28T11:59:23.280Z,979.66
2023-10-28T12:00:23.192Z,979.67
2023-10-28T12:01:23.250Z,979.65
2023-10-28T12:02:23.219Z,979.66
2023-10-28T12:03:23.198Z,979.65
2023-10-28T12:04:23.160Z,979.60
2023-10-28T12:05:23.183Z,979.60
2023-10-28T12:06:30.184Z,979.65
2023-10-28T12:07:24.115Z,979.67
2023-10-28T12:08:23.132Z,979.69
2023-10-28T12:09:23.095Z,979.71
2023-10-28T12:10:23.088Z,979.71
2023-10-28T12:11:23.120Z,979.68
2023-10-28T12:12:23.067Z,979.66
2023-10-28T12:13:23.056Z,979.68
2023-10-28T12:14:23.056Z,979.68
2023-10-28T12:15:23.045Z,979.76
2023-10-28T12:16:23.077Z,979.75
2023-10-28T12:17:23.079Z,979.78
2023-10-28T12:18:22.998Z,979.76
2023-10-28T12:19:22.989Z,979.75
2023-10-28T12:20:23.016Z,979.84
2023-10-28T12:21:22.992Z,979.79
2023-10-28T12:22:22.962Z,979.83
2023-10-28T12:23:23.050Z,979.85
2023-10-28T12:24:22.939Z,979.86
2023-10-28T12:25:22.941Z,979.85
2023-10-28T12:26:22.975Z,979.89
2023-10-28T12:27:22.907Z,979.87
2023-10-28T12:28:22.893Z,979.88